sensor_id;sensor_type;location;lat;lon;timestamp;pressure;altitude;pressure_sealevel;temperature;humidity
70468;BME280;57934;51.532;7.684;2024-03-02T00:00:19;98897.56;;;7.50;76.94
70468;BME280;57934;51.532;7.684;2024-03-02T00:02:49;98896.75;;;7.56;76.19
70468;BME280;57934;51.532;7.684;2024-03-02T00:05:20;98897.91;;;7.73;75.58
70468;BME280;57934;51.532;7.684;2024-03-02T00:07:56;98910.00;;;7.68;75.55
70468;BME280;57934;51.532;7.684;2024-03-02T00:10:26;98903.56;;;7.63;75.88
70468;BME280;57934;51.532;7.684;2024-03-02T00:12:55;98910.69;;;7.50;76.51
70468;BME280;57934;51.532;7.684;2024-03-02T00:15:42;98914.31;;;7.55;75.89
70468;BME280;57934;51.532;7.684;2024-03-02T00:18:14;98914.28;;;7.62;75.72
70468;BME280;57934;51.532;7.684;2024-03-02T00:20:40;98913.47;;;7.61;75.44
70468;BME280;57934;51.532;7.684;2024-03-02T00:23:08;98910.84;;;7.61;75.52
70468;BME280;57934;51.532;7.684;2024-03-02T00:25:40;98909.06;;;7.55;75.55
70468;BME280;57934;51.532;7.684;2024-03-02T00:28:21;98899.16;;;7.57;75.37
70468;BME280;57934;51.532;7.684;2024-03-02T00:30:52;98910.44;;;7.58;75.42
70468;BME280;57934;51.532;7.684;2024-03-02T00:33:21;98907.25;;;7.56;74.92
70468;BME280;57934;51.532;7.684;2024-03-02T00:35:48;98908.16;;;7.75;74.60
70468;BME280;57934;51.532;7.684;2024-03-02T00:38:15;98910.44;;;7.58;75.03
70468;BME280;57934;51.532;7.684;2024-03-02T00:40:44;98917.75;;;7.56;75.21
70468;BME280;57934;51.532;7.684;2024-03-02T00:45:47;98907.88;;;7.51;75.63
70468;BME280;57934;51.532;7.684;2024-03-02T00:48:15;98912.25;;;7.64;75.04
70468;BME280;57934;51.532;7.684;2024-03-02T00:50:42;98909.66;;;7.57;75.08
70468;BME280;57934;51.532;7.684;2024-03-02T00:53:11;98906.22;;;7.57;75.15
70468;BME280;57934;51.532;7.684;2024-03-02T00:55:39;98907.00;;;7.64;75.23
70468;BME280;57934;51.532;7.684;2024-03-02T00:58:09;98903.16;;;7.67;74.89
70468;BME280;57934;51.532;7.684;2024-03-02T01:00:36;98898.56;;;7.55;75.22
70468;BME280;57934;51.532;7.684;2024-03-02T01:03:02;98897.56;;;7.56;75.18
70468;BME280;57934;51.532;7.684;2024-03-02T01:05:29;98896.91;;;7.61;75.10
70468;BME280;57934;51.532;7.684;2024-03-02T01:07:55;98898.16;;;7.58;74.89
70468;BME280;57934;51.532;7.684;2024-03-02T01:10:21;98893.31;;;7.55;75.18
70468;BME280;57934;51.532;7.684;2024-03-02T01:12:47;98884.97;;;7.72;74.50
70468;BME280;57934;51.532;7.684;2024-03-02T01:15:14;98884.97;;;7.72;74.27
70468;BME280;57934;51.532;7.684;2024-03-02T01:17:40;98889.00;;;7.74;73.70
70468;BME280;57934;51.532;7.684;2024-03-02T01:20:08;98883.09;;;7.85;73.14
70468;BME280;57934;51.532;7.684;2024-03-02T01:22:34;98884.25;;;7.89;73.10
70468;BME280;57934;51.532;7.684;2024-03-02T01:25:00;98884.66;;;7.93;72.91
70468;BME280;57934;51.532;7.684;2024-03-02T01:27:26;98885.16;;;7.77;73.12
70468;BME280;57934;51.532;7.684;2024-03-02T01:29:52;98885.56;;;7.74;73.36
70468;BME280;57934;51.532;7.684;2024-03-02T01:32:18;98877.31;;;7.70;73.59
70468;BME280;57934;51.532;7.684;2024-03-02T01:34:44;98864.94;;;7.84;72.85
70468;BME280;57934;51.532;7.684;2024-03-02T01:37:10;98856.47;;;7.82;73.05
70468;BME280;57934;51.532;7.684;2024-03-02T01:39:37;98869.44;;;7.70;73.59
70468;BME280;57934;51.532;7.684;2024-03-02T01:42:03;98867.88;;;7.62;73.46
70468;BME280;57934;51.532;7.684;2024-03-02T01:44:29;98864.50;;;7.49;74.46
70468;BME280;57934;51.532;7.684;2024-03-02T01:46:55;98863.31;;;7.45;74.48
70468;BME280;57934;51.532;7.684;2024-03-02T01:49:21;98856.59;;;7.62;73.76
70468;BME280;57934;51.532;7.684;2024-03-02T01:51:48;98855.97;;;7.60;73.87
70468;BME280;57934;51.532;7.684;2024-03-02T01:54:14;98858.63;;;7.53;74.36
70468;BME280;57934;51.532;7.684;2024-03-02T01:56:40;98853.97;;;7.55;74.20
70468;BME280;57934;51.532;7.684;2024-03-02T01:59:06;98857.56;;;7.61;73.80
70468;BME280;57934;51.532;7.684;2024-03-02T02:01:32;98861.25;;;7.53;74.36
70468;BME280;57934;51.532;7.684;2024-03-02T02:03:59;98857.44;;;7.49;73.93
70468;BME280;57934;51.532;7.684;2024-03-02T02:06:26;98860.44;;;7.53;74.43
70468;BME280;57934;51.532;7.684;2024-03-02T02:08:52;98860.22;;;7.54;74.41
70468;BME280;57934;51.532;7.684;2024-03-02T02:11:18;98862.84;;;7.54;74.63
70468;BME280;57934;51.532;7.684;2024-03-02T02:13:44;98858.25;;;7.50;74.54
70468;BME280;57934;51.532;7.684;2024-03-02T02:16:10;98847.78;;;7.43;74.68
70468;BME280;57934;51.532;7.684;2024-03-02T02:18:36;98851.44;;;7.35;75.30
70468;BME280;57934;51.532;7.684;2024-03-02T02:21:03;98848.59;;;7.37;74.92
70468;BME280;57934;51.532;7.684;2024-03-02T02:23:29;98838.16;;;7.30;75.30
70468;BME280;57934;51.532;7.684;2024-03-02T02:25:55;98841.28;;;7.52;74.32
70468;BME280;57934;51.532;7.684;2024-03-02T02:28:21;98842.63;;;7.61;74.21
70468;BME280;57934;51.532;7.684;2024-03-02T02:30:47;98841.13;;;7.40;74.71
70468;BME280;57934;51.532;7.684;2024-03-02T02:33:13;98852.47;;;7.34;74.91
70468;BME280;57934;51.532;7.684;2024-03-02T02:35:39;98838.31;;;7.35;75.34
70468;BME280;57934;51.532;7.684;2024-03-02T02:38:05;98843.16;;;7.38;74.94
70468;BME280;57934;51.532;7.684;2024-03-02T02:40:32;98840.16;;;7.35;75.05
70468;BME280;57934;51.532;7.684;2024-03-02T02:42:58;98839.91;;;7.43;74.69
70468;BME280;57934;51.532;7.684;2024-03-02T02:45:25;98836.91;;;7.39;74.76
70468;BME280;57934;51.532;7.684;2024-03-02T02:47:51;98835.47;;;7.44;74.50
70468;BME280;57934;51.532;7.684;2024-03-02T02:50:17;98839.53;;;7.33;74.99
70468;BME280;57934;51.532;7.684;2024-03-02T02:52:43;98837.97;;;7.25;75.31
70468;BME280;57934;51.532;7.684;2024-03-02T02:55:11;98834.38;;;7.20;75.41
70468;BME280;57934;51.532;7.684;2024-03-02T02:57:39;98827.69;;;7.30;75.17
70468;BME280;57934;51.532;7.684;2024-03-02T03:00:10;98829.72;;;7.22;75.73
70468;BME280;57934;51.532;7.684;2024-03-02T03:02:41;98824.47;;;7.22;75.59
70468;BME280;57934;51.532;7.684;2024-03-02T03:05:11;98825.28;;;7.15;75.79
70468;BME280;57934;51.532;7.684;2024-03-02T03:07:39;98827.09;;;7.15;75.83
70468;BME280;57934;51.532;7.684;2024-03-02T03:10:07;98836.16;;;7.19;75.98
70468;BME280;57934;51.532;7.684;2024-03-02T03:12:34;98829.75;;;7.08;75.70
70468;BME280;57934;51.532;7.684;2024-03-02T03:15:00;98835.78;;;7.15;75.77
70468;BME280;57934;51.532;7.684;2024-03-02T03:17:26;98830.94;;;7.12;75.70
70468;BME280;57934;51.532;7.684;2024-03-02T03:19:53;98831.41;;;6.96;76.43
70468;BME280;57934;51.532;7.684;2024-03-02T03:22:20;98834.19;;;7.01;76.56
70468;BME280;57934;51.532;7.684;2024-03-02T03:24:46;98829.56;;;7.03;76.03
70468;BME280;57934;51.532;7.684;2024-03-02T03:27:12;98841.47;;;6.99;76.02
70468;BME280;57934;51.532;7.684;2024-03-02T03:29:38;98827.16;;;7.02;76.29
70468;BME280;57934;51.532;7.684;2024-03-02T03:32:05;98836.84;;;6.94;76.38
70468;BME280;57934;51.532;7.684;2024-03-02T03:34:33;98829.41;;;6.91;76.90
70468;BME280;57934;51.532;7.684;2024-03-02T03:36:59;98824.34;;;6.97;76.75
70468;BME280;57934;51.532;7.684;2024-03-02T03:39:25;98822.94;;;6.94;76.76
70468;BME280;57934;51.532;7.684;2024-03-02T03:41:51;98822.72;;;7.02;76.70
70468;BME280;57934;51.532;7.684;2024-03-02T03:44:17;98832.59;;;7.00;76.35
70468;BME280;57934;51.532;7.684;2024-03-02T03:46:43;98823.13;;;6.99;76.55
70468;BME280;57934;51.532;7.684;2024-03-02T03:49:09;98824.75;;;6.93;76.87
70468;BME280;57934;51.532;7.684;2024-03-02T03:51:35;98836.47;;;6.84;77.03
70468;BME280;57934;51.532;7.684;2024-03-02T03:54:01;98844.31;;;6.91;77.14
70468;BME280;57934;51.532;7.684;2024-03-02T03:56:27;98839.72;;;6.73;77.32
70468;BME280;57934;51.532;7.684;2024-03-02T03:58:53;98835.47;;;6.79;76.98
70468;BME280;57934;51.532;7.684;2024-03-02T04:01:19;98843.75;;;6.69;77.39
70468;BME280;57934;51.532;7.684;2024-03-02T04:03:48;98845.56;;;6.82;76.72
70468;BME280;57934;51.532;7.684;2024-03-02T04:06:14;98836.88;;;6.81;77.10
70468;BME280;57934;51.532;7.684;2024-03-02T04:08:42;98849.78;;;6.83;76.99
70468;BME280;57934;51.532;7.684;2024-03-02T04:11:08;98843.72;;;6.82;76.98
70468;BME280;57934;51.532;7.684;2024-03-02T04:13:34;98836.84;;;6.88;77.23
70468;BME280;57934;51.532;7.684;2024-03-02T04:16:00;98842.13;;;6.81;77.02
70468;BME280;57934;51.532;7.684;2024-03-02T04:18:26;98847.53;;;6.86;77.14
70468;BME280;57934;51.532;7.684;2024-03-02T04:20:52;98847.53;;;6.93;76.68
70468;BME280;57934;51.532;7.684;2024-03-02T04:23:18;98846.75;;;6.86;76.90
70468;BME280;57934;51.532;7.684;2024-03-02T04:25:44;98836.63;;;7.03;76.63
70468;BME280;57934;51.532;7.684;2024-03-02T04:28:10;98831.19;;;7.04;76.28
70468;BME280;57934;51.532;7.684;2024-03-02T04:30:37;98831.91;;;7.25;75.60
70468;BME280;57934;51.532;7.684;2024-03-02T04:33:04;98831.16;;;7.11;75.83
70468;BME280;57934;51.532;7.684;2024-03-02T04:35:31;98832.19;;;7.10;76.18
70468;BME280;57934;51.532;7.684;2024-03-02T04:37:57;98833.16;;;7.09;76.05
70468;BME280;57934;51.532;7.684;2024-03-02T04:40:23;98840.63;;;7.12;76.17
70468;BME280;57934;51.532;7.684;2024-03-02T04:42:49;98845.88;;;7.05;76.22
70468;BME280;57934;51.532;7.684;2024-03-02T04:45:16;98850.94;;;7.00;76.19
70468;BME280;57934;51.532;7.684;2024-03-02T04:47:42;98850.94;;;7.07;76.07
70468;BME280;57934;51.532;7.684;2024-03-02T04:50:08;98847.91;;;7.10;76.14
70468;BME280;57934;51.532;7.684;2024-03-02T04:52:34;98853.72;;;7.12;76.50
70468;BME280;57934;51.532;7.684;2024-03-02T04:55:00;98857.19;;;7.06;76.47
70468;BME280;57934;51.532;7.684;2024-03-02T04:57:35;98861.66;;;6.99;76.61
70468;BME280;57934;51.532;7.684;2024-03-02T05:00:01;98857.19;;;7.06;76.59
70468;BME280;57934;51.532;7.684;2024-03-02T05:02:32;98856.00;;;6.95;76.98
70468;BME280;57934;51.532;7.684;2024-03-02T05:04:58;98855.16;;;7.01;76.55
70468;BME280;57934;51.532;7.684;2024-03-02T05:07:24;98859.84;;;6.92;77.43
70468;BME280;57934;51.532;7.684;2024-03-02T05:09:50;98851.34;;;7.04;76.80
70468;BME280;57934;51.532;7.684;2024-03-02T05:12:16;98852.31;;;7.16;76.92
70468;BME280;57934;51.532;7.684;2024-03-02T05:15:21;98858.78;;;7.07;77.03
70468;BME280;57934;51.532;7.684;2024-03-02T05:17:48;98859.19;;;7.04;77.13
70468;BME280;57934;51.532;7.684;2024-03-02T05:20:14;98863.41;;;7.11;76.83
70468;BME280;57934;51.532;7.684;2024-03-02T05:22:40;98864.84;;;7.01;77.07
70468;BME280;57934;51.532;7.684;2024-03-02T05:25:07;98875.16;;;6.89;77.36
70468;BME280;57934;51.532;7.684;2024-03-02T05:27:35;98871.34;;;6.91;77.19
70468;BME280;57934;51.532;7.684;2024-03-02T05:30:01;98880.41;;;6.82;77.48
70468;BME280;57934;51.532;7.684;2024-03-02T05:32:28;98892.31;;;6.78;78.17
70468;BME280;57934;51.532;7.684;2024-03-02T05:34:54;98899.78;;;6.75;78.08
70468;BME280;57934;51.532;7.684;2024-03-02T05:37:21;98900.97;;;6.72;78.09
70468;BME280;57934;51.532;7.684;2024-03-02T05:39:47;98899.16;;;6.79;77.88
70468;BME280;57934;51.532;7.684;2024-03-02T05:42:13;98903.38;;;6.74;78.53
70468;BME280;57934;51.532;7.684;2024-03-02T05:44:40;98903.19;;;6.68;78.18
70468;BME280;57934;51.532;7.684;2024-03-02T05:47:06;98897.16;;;6.61;79.07
70468;BME280;57934;51.532;7.684;2024-03-02T05:49:35;98900.78;;;6.67;78.66
70468;BME280;57934;51.532;7.684;2024-03-02T05:52:01;98885.03;;;6.74;78.64
70468;BME280;57934;51.532;7.684;2024-03-02T05:54:27;98888.50;;;6.74;78.39
70468;BME280;57934;51.532;7.684;2024-03-02T05:56:53;98890.09;;;6.82;77.47
70468;BME280;57934;51.532;7.684;2024-03-02T05:59:19;98889.88;;;6.83;77.66
70468;BME280;57934;51.532;7.684;2024-03-02T06:01:46;98892.72;;;6.75;78.03
70468;BME280;57934;51.532;7.684;2024-03-02T06:04:13;98902.97;;;6.70;78.35
70468;BME280;57934;51.532;7.684;2024-03-02T06:06:42;98899.94;;;6.73;78.31
70468;BME280;57934;51.532;7.684;2024-03-02T06:09:10;98896.75;;;6.71;78.41
70468;BME280;57934;51.532;7.684;2024-03-02T06:11:39;98896.13;;;6.62;78.66
70468;BME280;57934;51.532;7.684;2024-03-02T06:14:07;98899.16;;;6.79;77.90
70468;BME280;57934;51.532;7.684;2024-03-02T06:16:34;98893.91;;;6.73;78.04
70468;BME280;57934;51.532;7.684;2024-03-02T06:19:00;98896.13;;;6.89;77.48
70468;BME280;57934;51.532;7.684;2024-03-02T06:21:27;98904.16;;;6.87;77.71
70468;BME280;57934;51.532;7.684;2024-03-02T06:23:53;98896.13;;;6.96;77.47
70468;BME280;57934;51.532;7.684;2024-03-02T06:26:20;98907.41;;;6.96;77.26
70468;BME280;57934;51.532;7.684;2024-03-02T06:28:46;98912.44;;;6.91;77.42
70468;BME280;57934;51.532;7.684;2024-03-02T06:31:12;98904.38;;;6.99;77.21
70468;BME280;57934;51.532;7.684;2024-03-02T06:33:38;98915.44;;;7.08;76.78
70468;BME280;57934;51.532;7.684;2024-03-02T06:36:06;98915.84;;;6.98;77.26
70468;BME280;57934;51.532;7.684;2024-03-02T06:38:34;98920.69;;;6.88;77.83
70468;BME280;57934;51.532;7.684;2024-03-02T06:41:00;98922.09;;;6.90;77.90
70468;BME280;57934;51.532;7.684;2024-03-02T06:43:27;98927.56;;;7.02;77.77
70468;BME280;57934;51.532;7.684;2024-03-02T06:45:53;98931.16;;;7.14;76.88
70468;BME280;57934;51.532;7.684;2024-03-02T06:48:19;98924.09;;;7.02;77.01
70468;BME280;57934;51.532;7.684;2024-03-02T06:50:49;98934.41;;;7.10;77.30
70468;BME280;57934;51.532;7.684;2024-03-02T06:53:16;98920.50;;;7.09;77.01
70468;BME280;57934;51.532;7.684;2024-03-02T06:55:44;98929.94;;;7.17;77.25
70468;BME280;57934;51.532;7.684;2024-03-02T06:58:13;98927.09;;;7.25;76.67
70468;BME280;57934;51.532;7.684;2024-03-02T07:00:44;98928.94;;;7.11;77.29
70468;BME280;57934;51.532;7.684;2024-03-02T07:03:10;98930.91;;;7.29;76.87
70468;BME280;57934;51.532;7.684;2024-03-02T07:05:36;98923.09;;;7.09;77.81
70468;BME280;57934;51.532;7.684;2024-03-02T07:08:02;98923.28;;;7.28;77.01
70468;BME280;57934;51.532;7.684;2024-03-02T07:10:30;98926.03;;;7.46;76.27
70468;BME280;57934;51.532;7.684;2024-03-02T07:12:56;98924.41;;;7.52;76.50
70468;BME280;57934;51.532;7.684;2024-03-02T07:15:22;98932.84;;;7.60;75.66
70468;BME280;57934;51.532;7.684;2024-03-02T07:17:54;98937.66;;;7.70;74.83
70468;BME280;57934;51.532;7.684;2024-03-02T07:20:21;98940.94;;;7.52;76.13
70468;BME280;57934;51.532;7.684;2024-03-02T07:22:47;98938.09;;;7.54;76.08
70468;BME280;57934;51.532;7.684;2024-03-02T07:25:13;98943.34;;;7.60;76.06
70468;BME280;57934;51.532;7.684;2024-03-02T07:27:39;98945.13;;;7.73;75.65
70468;BME280;57934;51.532;7.684;2024-03-02T07:30:06;98945.69;;;7.75;75.65
70468;BME280;57934;51.532;7.684;2024-03-02T07:32:32;98943.66;;;7.84;75.84
70468;BME280;57934;51.532;7.684;2024-03-02T07:34:58;98947.34;;;8.15;75.04
70468;BME280;57934;51.532;7.684;2024-03-02T07:37:25;98944.75;;;8.08;75.09
70468;BME280;57934;51.532;7.684;2024-03-02T07:39:53;98943.03;;;8.27;74.50
70468;BME280;57934;51.532;7.684;2024-03-02T07:42:19;98943.19;;;8.39;73.97
70468;BME280;57934;51.532;7.684;2024-03-02T07:44:45;98940.56;;;8.39;74.30
70468;BME280;57934;51.532;7.684;2024-03-02T07:47:11;98941.25;;;8.52;73.68
70468;BME280;57934;51.532;7.684;2024-03-02T07:49:38;98950.09;;;8.65;73.07
70468;BME280;57934;51.532;7.684;2024-03-02T07:52:04;98949.16;;;8.77;72.21
70468;BME280;57934;51.532;7.684;2024-03-02T07:54:30;98948.22;;;8.72;72.95
70468;BME280;57934;51.532;7.684;2024-03-02T07:56:56;98951.25;;;8.94;71.97
70468;BME280;57934;51.532;7.684;2024-03-02T07:59:22;98942.22;;;9.08;70.80
70468;BME280;57934;51.532;7.684;2024-03-02T08:01:49;98949.63;;;9.18;70.78
70468;BME280;57934;51.532;7.684;2024-03-02T08:04:16;98956.13;;;9.33;70.21
70468;BME280;57934;51.532;7.684;2024-03-02T08:06:42;98958.75;;;9.33;70.50
70468;BME280;57934;51.532;7.684;2024-03-02T08:09:08;98953.56;;;9.08;70.71
70468;BME280;57934;51.532;7.684;2024-03-02T08:11:37;98958.59;;;9.10;70.51
70468;BME280;57934;51.532;7.684;2024-03-02T08:14:04;98964.34;;;9.00;70.66
70468;BME280;57934;51.532;7.684;2024-03-02T08:16:30;98956.03;;;9.03;71.10
70468;BME280;57934;51.532;7.684;2024-03-02T08:18:56;98960.91;;;9.00;70.99
70468;BME280;57934;51.532;7.684;2024-03-02T08:21:24;98964.78;;;9.59;70.12
70468;BME280;57934;51.532;7.684;2024-03-02T08:23:50;98962.22;;;10.19;67.50
70468;BME280;57934;51.532;7.684;2024-03-02T08:26:17;98959.84;;;10.48;67.02
70468;BME280;57934;51.532;7.684;2024-03-02T08:28:43;98961.03;;;10.75;65.17
70468;BME280;57934;51.532;7.684;2024-03-02T08:31:09;98963.72;;;11.34;63.74
70468;BME280;57934;51.532;7.684;2024-03-02T08:33:36;98968.88;;;11.93;61.58
70468;BME280;57934;51.532;7.684;2024-03-02T08:36:02;98974.09;;;11.76;60.65
70468;BME280;57934;51.532;7.684;2024-03-02T08:38:29;98963.06;;;11.91;60.58
70468;BME280;57934;51.532;7.684;2024-03-02T08:40:56;98968.06;;;12.04;60.19
70468;BME280;57934;51.532;7.684;2024-03-02T08:43:22;98966.19;;;12.16;60.02
70468;BME280;57934;51.532;7.684;2024-03-02T08:45:48;98965.41;;;12.95;58.73
70468;BME280;57934;51.532;7.684;2024-03-02T08:48:15;98959.13;;;13.18;56.26
70468;BME280;57934;51.532;7.684;2024-03-02T08:50:41;98969.88;;;13.67;55.63
70468;BME280;57934;51.532;7.684;2024-03-02T08:53:07;98969.56;;;13.85;54.40
70468;BME280;57934;51.532;7.684;2024-03-02T08:55:33;98976.72;;;13.85;53.94
70468;BME280;57934;51.532;7.684;2024-03-02T08:57:59;98981.56;;;14.42;53.39
70468;BME280;57934;51.532;7.684;2024-03-02T09:00:25;98978.34;;;14.62;52.48
70468;BME280;57934;51.532;7.684;2024-03-02T09:02:52;98992.78;;;14.49;52.34
70468;BME280;57934;51.532;7.684;2024-03-02T09:05:18;98995.38;;;13.95;52.93
70468;BME280;57934;51.532;7.684;2024-03-02T09:07:44;98990.81;;;14.13;52.96
70468;BME280;57934;51.532;7.684;2024-03-02T09:10:10;98997.59;;;14.52;52.19
70468;BME280;57934;51.532;7.684;2024-03-02T09:12:38;98996.88;;;14.08;52.67
70468;BME280;57934;51.532;7.684;2024-03-02T09:15:04;98992.69;;;14.39;53.24
70468;BME280;57934;51.532;7.684;2024-03-02T09:17:32;98994.56;;;14.66;52.55
70468;BME280;57934;51.532;7.684;2024-03-02T09:19:58;98988.94;;;14.62;52.17
70468;BME280;57934;51.532;7.684;2024-03-02T09:22:24;98981.91;;;14.24;52.60
70468;BME280;57934;51.532;7.684;2024-03-02T09:24:50;98991.31;;;14.59;51.46
70468;BME280;57934;51.532;7.684;2024-03-02T09:27:16;98979.19;;;14.41;51.97
70468;BME280;57934;51.532;7.684;2024-03-02T09:29:42;98979.47;;;15.03;51.51
70468;BME280;57934;51.532;7.684;2024-03-02T09:32:12;98986.94;;;15.49;50.49
70468;BME280;57934;51.532;7.684;2024-03-02T09:34:40;98996.00;;;16.06;49.19
70468;BME280;57934;51.532;7.684;2024-03-02T09:37:06;98992.84;;;16.19;48.40
70468;BME280;57934;51.532;7.684;2024-03-02T09:39:32;98971.31;;;16.26;47.96
70468;BME280;57934;51.532;7.684;2024-03-02T09:41:59;98978.41;;;15.99;48.49
70468;BME280;57934;51.532;7.684;2024-03-02T09:44:26;98968.41;;;16.37;48.43
70468;BME280;57934;51.532;7.684;2024-03-02T09:46:52;98969.94;;;16.13;47.82
70468;BME280;57934;51.532;7.684;2024-03-02T09:49:18;98981.41;;;15.13;49.96
70468;BME280;57934;51.532;7.684;2024-03-02T09:51:47;98978.25;;;15.21;49.85
70468;BME280;57934;51.532;7.684;2024-03-02T09:54:13;98974.75;;;15.11;50.38
70468;BME280;57934;51.532;7.684;2024-03-02T09:56:41;98977.38;;;15.53;49.72
70468;BME280;57934;51.532;7.684;2024-03-02T09:59:07;98976.75;;;15.78;49.45
70468;BME280;57934;51.532;7.684;2024-03-02T10:01:33;98981.59;;;15.91;49.19
70468;BME280;57934;51.532;7.684;2024-03-02T10:04:00;98983.44;;;15.91;48.10
70468;BME280;57934;51.532;7.684;2024-03-02T10:06:27;98981.63;;;16.07;47.58
70468;BME280;57934;51.532;7.684;2024-03-02T10:08:54;98971.91;;;16.53;47.80
70468;BME280;57934;51.532;7.684;2024-03-02T10:11:34;98963.38;;;16.56;46.89
70468;BME280;57934;51.532;7.684;2024-03-02T10:16:36;98974.78;;;16.41;47.75
70468;BME280;57934;51.532;7.684;2024-03-02T10:19:15;98984.63;;;16.41;47.20
70468;BME280;57934;51.532;7.684;2024-03-02T10:21:42;98986.97;;;16.17;47.83
70468;BME280;57934;51.532;7.684;2024-03-02T10:24:08;98989.59;;;16.02;48.02
70468;BME280;57934;51.532;7.684;2024-03-02T10:26:34;98981.81;;;15.90;48.86
70468;BME280;57934;51.532;7.684;2024-03-02T10:29:01;98981.84;;;15.95;48.63
70468;BME280;57934;51.532;7.684;2024-03-02T10:31:28;98984.00;;;15.45;49.28
70468;BME280;57934;51.532;7.684;2024-03-02T10:33:55;98975.81;;;15.10;49.80
70468;BME280;57934;51.532;7.684;2024-03-02T10:36:21;98978.34;;;15.37;50.00
70468;BME280;57934;51.532;7.684;2024-03-02T10:38:47;98978.84;;;15.28;49.31
70468;BME280;57934;51.532;7.684;2024-03-02T10:41:18;98977.00;;;15.77;49.53
70468;BME280;57934;51.532;7.684;2024-03-02T10:43:44;98973.69;;;16.12;48.29
70468;BME280;57934;51.532;7.684;2024-03-02T10:46:13;98971.84;;;16.28;48.73
70468;BME280;57934;51.532;7.684;2024-03-02T10:48:40;98969.75;;;16.40;47.01
70468;BME280;57934;51.532;7.684;2024-03-02T10:51:07;98971.22;;;16.00;48.03
70468;BME280;57934;51.532;7.684;2024-03-02T10:53:34;98973.38;;;16.03;47.60
70468;BME280;57934;51.532;7.684;2024-03-02T10:56:00;98975.78;;;16.10;47.48
70468;BME280;57934;51.532;7.684;2024-03-02T10:58:32;98972.28;;;15.94;48.20
70468;BME280;57934;51.532;7.684;2024-03-02T11:01:02;98970.00;;;16.33;48.17
70468;BME280;57934;51.532;7.684;2024-03-02T11:03:35;98969.53;;;16.92;46.24
70468;BME280;57934;51.532;7.684;2024-03-02T11:06:07;98972.09;;;17.49;45.56
70468;BME280;57934;51.532;7.684;2024-03-02T11:08:34;98966.31;;;17.01;45.93
70468;BME280;57934;51.532;7.684;2024-03-02T11:11:07;98966.84;;;16.98;45.07
70468;BME280;57934;51.532;7.684;2024-03-02T11:13:41;98954.59;;;17.12;45.41
70468;BME280;57934;51.532;7.684;2024-03-02T11:16:31;98954.88;;;17.00;45.79
70468;BME280;57934;51.532;7.684;2024-03-02T11:19:05;98955.69;;;16.75;45.97
70468;BME280;57934;51.532;7.684;2024-03-02T11:21:34;98966.03;;;16.56;46.19
70468;BME280;57934;51.532;7.684;2024-03-02T11:24:00;98955.13;;;17.24;45.19
70468;BME280;57934;51.532;7.684;2024-03-02T11:26:28;98952.06;;;17.77;44.12
70468;BME280;57934;51.532;7.684;2024-03-02T11:28:54;98952.44;;;18.04;43.83
70468;BME280;57934;51.532;7.684;2024-03-02T11:31:22;98951.50;;;18.29;42.89
70468;BME280;57934;51.532;7.684;2024-03-02T11:33:47;98957.25;;;19.15;41.92
70468;BME280;57934;51.532;7.684;2024-03-02T11:36:15;98955.38;;;19.88;39.86
70468;BME280;57934;51.532;7.684;2024-03-02T11:38:43;98949.34;;;20.20;39.43
70468;BME280;57934;51.532;7.684;2024-03-02T11:41:10;98952.81;;;20.20;39.25
70468;BME280;57934;51.532;7.684;2024-03-02T11:43:38;98955.69;;;20.05;39.08
70468;BME280;57934;51.532;7.684;2024-03-02T11:46:07;98954.13;;;19.56;40.00
70468;BME280;57934;51.532;7.684;2024-03-02T11:48:35;98953.81;;;18.80;40.56
70468;BME280;57934;51.532;7.684;2024-03-02T11:51:02;98950.34;;;18.41;42.30
70468;BME280;57934;51.532;7.684;2024-03-02T11:53:30;98945.50;;;19.64;40.46
70468;BME280;57934;51.532;7.684;2024-03-02T11:55:58;98942.66;;;19.55;40.22
70468;BME280;57934;51.532;7.684;2024-03-02T11:58:25;98945.72;;;20.30;38.96
70468;BME280;57934;51.532;7.684;2024-03-02T12:00:54;98945.28;;;20.41;37.79
70468;BME280;57934;51.532;7.684;2024-03-02T12:03:22;98935.44;;;20.18;38.63
70468;BME280;57934;51.532;7.684;2024-03-02T12:05:49;98926.75;;;19.40;39.86
70468;BME280;57934;51.532;7.684;2024-03-02T12:08:16;98933.50;;;20.05;39.63
70468;BME280;57934;51.532;7.684;2024-03-02T12:10:42;98921.06;;;20.98;37.86
70468;BME280;57934;51.532;7.684;2024-03-02T12:13:10;98916.59;;;21.07;37.28
70468;BME280;57934;51.532;7.684;2024-03-02T12:15:38;98923.59;;;21.63;36.61
70468;BME280;57934;51.532;7.684;2024-03-02T12:18:05;98926.06;;;20.72;37.43
70468;BME280;57934;51.532;7.684;2024-03-02T12:20:33;98919.50;;;21.11;37.45
70468;BME280;57934;51.532;7.684;2024-03-02T12:23:00;98915.88;;;21.98;36.31
70468;BME280;57934;51.532;7.684;2024-03-02T12:25:27;98919.56;;;20.92;37.60
70468;BME280;57934;51.532;7.684;2024-03-02T12:27:55;98921.63;;;19.20;39.17
70468;BME280;57934;51.532;7.684;2024-03-02T12:30:22;98920.22;;;17.96;41.39
70468;BME280;57934;51.532;7.684;2024-03-02T12:32:49;98920.72;;;17.23;43.36
70468;BME280;57934;51.532;7.684;2024-03-02T12:35:15;98913.59;;;16.62;45.35
70468;BME280;57934;51.532;7.684;2024-03-02T12:37:45;98910.94;;;16.41;46.35
70468;BME280;57934;51.532;7.684;2024-03-02T12:40:13;98912.78;;;16.31;46.62
70468;BME280;57934;51.532;7.684;2024-03-02T12:42:40;98920.16;;;15.93;47.01
70468;BME280;57934;51.532;7.684;2024-03-02T12:45:08;98917.63;;;15.56;47.62
70468;BME280;57934;51.532;7.684;2024-03-02T12:47:35;98915.88;;;15.24;48.41
70468;BME280;57934;51.532;7.684;2024-03-02T12:50:02;98919.44;;;15.45;48.70
70468;BME280;57934;51.532;7.684;2024-03-02T12:52:29;98918.13;;;15.52;48.84
70468;BME280;57934;51.532;7.684;2024-03-02T12:54:56;98914.97;;;15.61;48.56
70468;BME280;57934;51.532;7.684;2024-03-02T12:57:25;98915.16;;;15.44;48.75
70468;BME280;57934;51.532;7.684;2024-03-02T12:59:58;98909.09;;;15.48;48.01
70468;BME280;57934;51.532;7.684;2024-03-02T13:02:28;98908.66;;;15.67;48.40
70468;BME280;57934;51.532;7.684;2024-03-02T13:04:55;98912.94;;;15.73;48.48
70468;BME280;57934;51.532;7.684;2024-03-02T13:07:23;98899.03;;;15.56;48.72
70468;BME280;57934;51.532;7.684;2024-03-02T13:09:50;98910.16;;;15.52;48.77
70468;BME280;57934;51.532;7.684;2024-03-02T13:12:17;98912.41;;;15.76;48.75